Time;durP1;ratioP1;P1;durP2;ratioP2;P2;SDS_P1;SDS_P2;PMS_P1;PMS_P2;Temp;Humidity;BMP_temperature;BMP_pressure;BME280_temperature;BME280_humidity;BME280_pressure;Samples;Min_cycle;Max_cycle;Signal;HPM_P1;HPM_P2
2022/07/04 00:02:23;;;;;;;9.93;4.07;;;;;;;19.06;100.00;96848.31;4955607;28;20053;-68
2022/07/04 00:04:49;;;;;;;6.68;3.45;;;;;;;19.15;100.00;96845.00;4973611;28;20098;-67
2022/07/04 00:07:14;;;;;;;7.13;3.20;;;;;;;19.28;100.00;96841.22;4990797;28;20066;-69
2022/07/04 00:09:40;;;;;;;5.25;3.10;;;;;;;19.35;100.00;96837.53;4983459;28;20097;-68
2022/07/04 00:12:05;;;;;;;12.98;3.35;;;;;;;19.42;100.00;96833.88;4978717;28;20504;-66
2022/07/04 00:14:31;;;;;;;5.88;2.85;;;;;;;19.39;100.00;96832.72;4967148;28;20543;-67
2022/07/04 00:16:56;;;;;;;4.10;2.75;;;;;;;19.32;100.00;96820.94;4966578;28;20074;-67
2022/07/04 00:19:22;;;;;;;5.47;3.35;;;;;;;19.33;100.00;96816.97;4961599;28;20616;-68
2022/07/04 00:21:47;;;;;;;3.58;2.85;;;;;;;19.39;100.00;96804.97;4961053;28;20049;-67
2022/07/04 00:24:13;;;;;;;6.53;3.10;;;;;;;19.32;100.00;96804.28;4960650;28;20488;-67
2022/07/04 00:26:38;;;;;;;7.10;3.67;;;;;;;19.21;100.00;96805.25;4957039;28;20055;-69
2022/07/04 00:29:03;;;;;;;5.85;3.20;;;;;;;19.12;100.00;96799.44;4942996;28;20049;-66
2022/07/04 00:31:29;;;;;;;5.70;3.10;;;;;;;19.12;100.00;96790.31;4943874;29;20051;-67
2022/07/04 00:33:54;;;;;;;4.72;3.25;;;;;;;19.31;100.00;96800.72;4946671;28;20149;-68
2022/07/04 00:36:20;;;;;;;4.80;2.80;;;;;;;19.53;100.00;96803.13;4941630;28;20129;-68
2022/07/04 00:38:45;;;;;;;4.15;3.10;;;;;;;19.76;100.00;96800.34;4946786;28;20043;-68
2022/07/04 00:41:11;;;;;;;6.82;2.72;;;;;;;19.83;100.00;96808.56;4943239;28;20113;-69
2022/07/04 00:43:36;;;;;;;7.43;2.72;;;;;;;19.88;100.00;96809.28;4945838;28;20043;-68
2022/07/04 00:46:08;;;;;;;3.83;2.42;;;;;;;19.89;100.00;96819.97;4947982;28;20044;-68
2022/07/04 00:48:33;;;;;;;5.93;2.58;;;;;;;19.88;100.00;96820.38;4964517;28;20505;-67
2022/07/04 00:51:00;;;;;;;3.63;2.70;;;;;;;19.79;100.00;96813.41;4964900;28;20090;-68
2022/07/04 00:53:25;;;;;;;7.72;2.88;;;;;;;19.81;100.00;96819.31;4960472;28;20051;-68
2022/07/04 00:55:52;;;;;;;7.53;2.60;;;;;;;19.76;100.00;96811.47;4961495;28;20043;-68
2022/07/04 00:58:20;;;;;;;5.90;2.78;;;;;;;19.76;100.00;96810.69;4961244;28;20520;-70
2022/07/04 01:00:46;;;;;;;4.78;2.53;;;;;;;19.80;100.00;96806.63;4964027;28;20050;-68
2022/07/04 01:03:11;;;;;;;5.22;2.58;;;;;;;19.78;100.00;96803.50;4960742;28;20057;-70
2022/07/04 01:05:38;;;;;;;7.45;2.70;;;;;;;19.50;100.00;96788.09;4974860;28;20051;-68
2022/07/04 01:08:04;;;;;;;7.10;2.45;;;;;;;18.71;100.00;96784.56;4964993;28;20123;-67
2022/07/04 01:10:30;;;;;;;5.18;3.25;;;;;;;18.31;100.00;96783.50;4964120;28;20312;-70
2022/07/04 01:12:56;;;;;;;7.38;2.90;;;;;;;18.30;100.00;96779.97;4969041;28;20082;-70
2022/07/04 01:15:22;;;;;;;7.20;2.92;;;;;;;18.57;100.00;96783.97;4958132;28;20090;-69
2022/07/04 01:17:48;;;;;;;6.93;2.90;;;;;;;18.79;100.00;96788.00;4965628;28;20035;-70
2022/07/04 01:20:15;;;;;;;5.35;2.33;;;;;;;18.96;100.00;96796.50;4959528;28;20046;-70
2022/07/04 01:22:41;;;;;;;6.22;2.30;;;;;;;19.06;100.00;96801.91;4960683;28;20038;-69
2022/07/04 01:25:07;;;;;;;9.55;2.40;;;;;;;19.19;100.00;96804.88;4958792;28;20050;-69
2022/07/04 01:27:33;;;;;;;4.85;2.72;;;;;;;19.27;100.00;96806.34;4962915;28;20134;-69
2022/07/04 01:29:58;;;;;;;6.82;2.20;;;;;;;19.28;100.00;96804.31;4964842;28;20125;-71
2022/07/04 01:32:25;;;;;;;4.38;2.28;;;;;;;19.18;100.00;96794.97;4974057;28;20709;-68
2022/07/04 01:34:50;;;;;;;10.00;2.83;;;;;;;19.15;100.00;96795.81;4964919;28;20082;-69
2022/07/04 01:37:16;;;;;;;4.75;2.22;;;;;;;19.15;100.00;96797.81;4957569;28;20130;-69
2022/07/04 01:39:41;;;;;;;5.30;2.58;;;;;;;19.19;100.00;96788.22;4962477;28;20066;-68
2022/07/04 01:42:07;;;;;;;6.90;2.55;;;;;;;19.23;100.00;96796.47;4973338;28;20569;-67
2022/07/04 01:44:33;;;;;;;7.10;2.45;;;;;;;19.07;100.00;96778.50;4960325;28;20085;-67
2022/07/04 01:46:58;;;;;;;9.13;2.65;;;;;;;18.99;100.00;96782.56;4944162;28;20051;-69
2022/07/04 01:49:24;;;;;;;6.78;2.55;;;;;;;19.05;100.00;96789.25;4958964;28;20051;-69
2022/07/04 01:51:51;;;;;;;5.70;1.80;;;;;;;19.10;100.00;96799.06;4969038;28;20061;-67
2022/07/04 01:54:17;;;;;;;8.98;2.80;;;;;;;19.15;100.00;96800.59;4980651;28;20043;-68
2022/07/04 01:56:42;;;;;;;7.82;2.75;;;;;;;19.09;100.00;96811.38;4983819;28;20031;-68
2022/07/04 01:59:08;;;;;;;4.68;2.35;;;;;;;19.04;100.00;96804.31;4972332;28;20142;-68
2022/07/04 02:01:34;;;;;;;5.22;2.08;;;;;;;19.04;100.00;96807.09;4972761;28;20059;-68
2022/07/04 02:04:01;;;;;;;6.63;2.47;;;;;;;19.06;100.00;96810.22;4967255;28;20035;-68
2022/07/04 02:06:27;;;;;;;4.78;2.13;;;;;;;19.06;100.00;96823.31;4941113;28;20137;-68
2022/07/04 02:14:21;;;;;;;3.67;2.03;;;;;;;18.89;100.00;96834.28;4952394;28;20053;-68
2022/07/04 02:16:47;;;;;;;4.47;2.20;;;;;;;18.95;100.00;96833.81;5001502;28;20043;-67
2022/07/04 02:19:12;;;;;;;5.47;2.15;;;;;;;18.88;100.00;96841.00;4972793;28;20485;-69
2022/07/04 02:21:37;;;;;;;5.47;2.38;;;;;;;18.86;100.00;96848.97;4969458;28;20041;-68
2022/07/04 02:24:03;;;;;;;4.68;2.50;;;;;;;18.93;100.00;96848.09;4949855;28;20058;-68
2022/07/04 02:26:29;;;;;;;5.25;2.10;;;;;;;18.83;100.00;96858.13;4952526;28;20043;-69
2022/07/04 02:28:54;;;;;;;4.72;2.17;;;;;;;18.79;100.00;96849.03;4978431;28;20074;-68
2022/07/04 02:31:19;;;;;;;6.97;2.30;;;;;;;18.91;100.00;96859.63;4952108;28;20476;-69
2022/07/04 02:33:45;;;;;;;5.75;2.15;;;;;;;19.09;100.00;96869.69;4964283;28;20583;-68
2022/07/04 02:36:10;;;;;;;4.40;2.30;;;;;;;19.08;100.00;96873.66;4957894;28;20511;-68
2022/07/04 02:38:36;;;;;;;13.52;2.90;;;;;;;19.14;100.00;96874.78;4979895;28;20054;-68
2022/07/04 02:41:01;;;;;;;4.40;2.72;;;;;;;19.26;100.00;96870.63;4961422;28;20097;-67
2022/07/04 02:43:26;;;;;;;9.50;2.53;;;;;;;19.26;100.00;96870.63;4960105;28;20078;-68
2022/07/04 02:45:52;;;;;;;5.85;2.15;;;;;;;19.20;100.00;96884.19;4962715;28;20388;-68
2022/07/04 02:48:17;;;;;;;4.55;2.13;;;;;;;19.18;100.00;96880.28;4946245;28;20051;-68
2022/07/04 02:50:43;;;;;;;7.30;2.97;;;;;;;19.13;100.00;96878.75;4961994;28;20046;-67
2022/07/04 02:53:08;;;;;;;10.77;2.58;;;;;;;19.14;100.00;96891.44;4949370;28;20074;-67
2022/07/04 02:55:33;;;;;;;4.93;2.00;;;;;;;19.12;100.00;96896.59;4942974;28;20389;-66
2022/07/04 02:57:59;;;;;;;5.05;2.13;;;;;;;19.11;100.00;96900.59;4945142;28;20039;-69
2022/07/04 03:00:25;;;;;;;7.43;2.53;;;;;;;19.15;100.00;96911.63;4939326;28;20046;-69
2022/07/04 03:02:51;;;;;;;6.63;2.03;;;;;;;19.14;100.00;96902.53;4944970;28;20046;-68
2022/07/04 03:05:16;;;;;;;3.95;2.25;;;;;;;18.95;100.00;96914.28;4969554;28;20070;-68
2022/07/04 03:07:42;;;;;;;10.40;2.22;;;;;;;19.01;100.00;96924.50;4944205;28;20043;-68
2022/07/04 03:10:08;;;;;;;5.70;2.50;;;;;;;19.11;100.00;96931.13;4945093;28;20399;-68
2022/07/04 03:12:33;;;;;;;5.90;2.33;;;;;;;19.05;100.00;96935.56;4963556;28;20039;-67
2022/07/04 03:14:59;;;;;;;6.75;2.58;;;;;;;19.08;100.00;96929.16;4979548;28;20046;-67
2022/07/04 03:17:29;;;;;;;4.07;2.25;;;;;;;19.15;100.00;96948.50;4960320;28;20491;-67
2022/07/04 03:19:58;;;;;;;10.55;2.53;;;;;;;19.15;100.00;96961.59;4964863;28;20043;-67
2022/07/04 03:22:23;;;;;;;4.55;2.45;;;;;;;18.91;100.00;96986.50;4959117;28;20047;-67
2022/07/04 03:24:49;;;;;;;5.18;2.08;;;;;;;18.76;100.00;96999.69;4964861;28;20491;-67
2022/07/04 03:27:14;;;;;;;3.88;2.35;;;;;;;18.61;100.00;97009.41;4958606;28;20062;-68
2022/07/04 03:29:40;;;;;;;5.30;2.47;;;;;;;18.46;100.00;97017.84;4963060;28;20130;-68
2022/07/04 03:32:06;;;;;;;5.25;2.50;;;;;;;18.47;100.00;97021.41;4959583;28;20058;-66
2022/07/04 03:34:31;;;;;;;5.72;2.40;;;;;;;18.17;100.00;97025.66;4964697;28;20039;-67
2022/07/04 03:36:57;;;;;;;6.45;2.13;;;;;;;18.22;100.00;97035.50;4976748;28;20646;-67
2022/07/04 03:39:22;;;;;;;6.90;2.70;;;;;;;18.13;100.00;97047.88;4957996;28;20491;-67
2022/07/04 03:41:48;;;;;;;9.80;3.30;;;;;;;18.13;100.00;97050.63;4963514;28;20086;-68
2022/07/04 03:44:13;;;;;;;5.43;2.53;;;;;;;18.26;100.00;97048.16;4958887;28;20051;-67
2022/07/04 03:46:39;;;;;;;8.75;2.67;;;;;;;18.51;100.00;97060.97;4964203;28;20455;-69
2022/07/04 03:49:05;;;;;;;6.55;2.70;;;;;;;18.66;100.00;97064.44;4977869;28;20480;-64
2022/07/04 03:51:31;;;;;;;3.95;2.33;;;;;;;18.65;100.00;97062.84;4968971;28;20424;-67
2022/07/04 03:53:56;;;;;;;7.90;2.65;;;;;;;18.57;100.00;97070.47;4981988;28;20043;-67
2022/07/04 03:56:21;;;;;;;4.32;2.30;;;;;;;18.62;100.00;97066.44;4960820;28;20650;-67
2022/07/04 03:58:48;;;;;;;8.43;2.30;;;;;;;18.65;100.00;97071.94;4975734;28;20055;-68
2022/07/04 04:01:18;;;;;;;6.15;2.58;;;;;;;18.70;100.00;97070.72;4961820;28;20045;-70
2022/07/04 04:06:29;;;;;;;8.98;2.42;;;;;;;18.51;100.00;97063.75;4962051;28;20141;-70
2022/07/04 04:08:54;;;;;;;8.27;2.88;;;;;;;18.51;100.00;97059.03;4968450;28;20041;-70
2022/07/04 04:11:20;;;;;;;3.75;2.58;;;;;;;18.21;100.00;97048.59;4958422;28;20055;-68
2022/07/04 04:13:45;;;;;;;7.18;2.92;;;;;;;18.31;100.00;97053.25;4966864;28;20042;-68
2022/07/04 04:16:11;;;;;;;5.93;2.65;;;;;;;18.32;100.00;97046.50;4960292;28;20105;-68
2022/07/04 04:18:36;;;;;;;8.32;2.72;;;;;;;18.20;100.00;97044.22;4963615;28;20045;-69
2022/07/04 04:21:03;;;;;;;7.70;2.85;;;;;;;18.14;100.00;97041.09;4965663;28;20579;-70
2022/07/04 04:23:28;;;;;;;5.68;3.03;;;;;;;17.86;100.00;97028.28;4968924;28;20051;-69
2022/07/04 04:25:54;;;;;;;7.50;3.10;;;;;;;17.48;100.00;97022.53;4985043;28;20332;-67
2022/07/04 04:28:19;;;;;;;9.52;3.10;;;;;;;17.50;100.00;97019.34;4967998;28;20123;-68
2022/07/04 04:30:45;;;;;;;6.47;3.50;;;;;;;17.26;100.00;97015.53;4952371;28;20820;-68
2022/07/04 04:33:10;;;;;;;12.32;3.83;;;;;;;17.17;100.00;97002.91;4972656;28;20073;-67
2022/07/04 04:35:36;;;;;;;6.65;3.65;;;;;;;16.99;100.00;96983.63;4980107;28;20039;-68
2022/07/04 04:38:01;;;;;;;8.95;4.30;;;;;;;16.93;100.00;96965.09;4967261;28;20050;-69
2022/07/04 04:40:26;;;;;;;8.30;4.20;;;;;;;16.73;100.00;96954.47;4955643;28;20051;-69
2022/07/04 04:42:52;;;;;;;9.50;4.63;;;;;;;17.04;100.00;96952.00;4968185;28;20155;-70
2022/07/04 04:45:17;;;;;;;10.82;4.50;;;;;;;17.33;100.00;96952.63;4970235;28;20043;-70
2022/07/04 04:47:43;;;;;;;9.50;3.95;;;;;;;17.37;100.00;96953.38;4997867;28;20046;-70
2022/07/04 04:50:11;;;;;;;8.32;4.13;;;;;;;17.71;100.00;96968.59;4981209;28;20047;-68
2022/07/04 04:52:40;;;;;;;8.93;3.47;;;;;;;17.98;100.00;97004.03;4976880;28;20137;-68
2022/07/04 04:55:05;;;;;;;8.75;3.55;;;;;;;18.05;100.00;97020.59;4959930;28;20437;-67
2022/07/04 04:57:31;;;;;;;4.57;2.90;;;;;;;18.17;100.00;97022.06;4966664;28;20042;-67
2022/07/04 04:59:56;;;;;;;4.53;2.72;;;;;;;18.15;100.00;97020.53;4965415;28;20042;-68
2022/07/04 05:02:22;;;;;;;5.43;2.92;;;;;;;18.20;100.00;97040.66;4960220;28;20097;-68
2022/07/04 05:04:47;;;;;;;6.10;2.70;;;;;;;18.25;100.00;97041.03;4962239;28;20055;-67
2022/07/04 05:07:12;;;;;;;6.57;2.58;;;;;;;18.12;100.00;97018.56;4960457;28;20565;-69
2022/07/04 05:09:39;;;;;;;5.35;2.80;;;;;;;17.85;100.00;97020.34;4962546;28;20046;-68
2022/07/04 05:12:04;;;;;;;7.20;3.22;;;;;;;17.50;100.00;97011.88;4961862;28;20043;-67
2022/07/04 05:14:30;;;;;;;8.23;3.30;;;;;;;17.19;100.00;97006.06;4964192;28;20109;-68
2022/07/04 05:16:56;;;;;;;5.57;3.38;;;;;;;17.14;100.00;96997.41;4945826;28;20046;-68
2022/07/04 05:19:21;;;;;;;5.88;3.50;;;;;;;17.20;100.00;96991.06;4956756;28;20457;-68
2022/07/04 05:21:47;;;;;;;10.38;3.75;;;;;;;17.15;100.00;96988.69;4965056;28;20043;-67
2022/07/04 05:24:12;;;;;;;5.68;3.72;;;;;;;17.16;100.00;97008.84;4960322;28;20097;-68
2022/07/04 05:26:37;;;;;;;7.75;3.70;;;;;;;17.30;100.00;97021.84;4962926;28;20147;-68
2022/07/04 05:29:03;;;;;;;8.55;4.18;;;;;;;17.63;100.00;97030.75;4961103;28;20039;-68
2022/07/04 05:31:28;;;;;;;6.63;3.55;;;;;;;18.04;100.00;97044.78;4961658;28;20122;-68
2022/07/04 05:33:54;;;;;;;9.57;4.25;;;;;;;18.01;100.00;97050.34;4981673;28;20101;-68
2022/07/04 05:36:20;;;;;;;7.47;3.22;;;;;;;18.07;100.00;97057.78;4962072;28;20632;-67
2022/07/04 05:38:46;;;;;;;6.13;3.47;;;;;;;18.37;100.00;97070.25;4964395;28;20047;-67
2022/07/04 05:41:11;;;;;;;6.00;3.15;;;;;;;18.66;100.00;97067.97;4973402;28;20050;-68
2022/07/04 05:43:36;;;;;;;6.97;2.78;;;;;;;18.85;100.00;97069.41;4963224;28;20039;-69
2022/07/04 05:46:03;;;;;;;5.53;2.10;;;;;;;19.02;100.00;97075.19;4962699;28;20043;-67
2022/07/04 05:48:28;;;;;;;6.13;2.60;;;;;;;19.03;100.00;97063.69;4962995;28;20043;-67
2022/07/04 05:50:54;;;;;;;7.15;2.83;;;;;;;19.06;100.00;97073.94;4960572;28;20449;-67
2022/07/04 05:53:19;;;;;;;8.45;2.67;;;;;;;19.10;100.00;97077.47;4958218;28;20500;-68
2022/07/04 05:55:45;;;;;;;5.35;2.20;;;;;;;19.17;100.00;97087.69;4959354;28;20039;-68
2022/07/04 05:58:10;;;;;;;10.85;2.33;;;;;;;19.20;100.00;97081.31;4961249;28;20134;-68
2022/07/04 06:00:39;;;;;;;3.55;2.30;;;;;;;19.19;100.00;97087.28;4961769;28;20043;-68
2022/07/04 06:03:05;;;;;;;7.60;2.80;;;;;;;18.76;100.00;97074.63;4961114;28;20066;-68
2022/07/04 06:05:30;;;;;;;6.55;2.60;;;;;;;18.36;100.00;97078.97;4964064;28;20051;-68
2022/07/04 06:07:56;;;;;;;7.50;2.80;;;;;;;18.16;100.00;97082.28;4961484;28;20548;-68
2022/07/04 06:10:22;;;;;;;9.73;3.22;;;;;;;18.24;100.00;97078.28;4949764;28;20631;-68
2022/07/04 06:12:47;;;;;;;7.82;3.50;;;;;;;18.26;100.00;97070.31;4962925;28;20510;-68
2022/07/04 06:15:13;;;;;;;5.30;3.22;;;;;;;18.36;100.00;97070.66;4951601;28;20043;-68
2022/07/04 06:17:38;;;;;;;8.25;3.88;;;;;;;18.24;100.00;97071.91;4962615;28;20383;-68
2022/07/04 06:20:05;;;;;;;7.80;3.65;;;;;;;18.49;100.00;97074.47;4961205;28;20054;-68
2022/07/04 06:22:47;;;;;;;6.32;2.92;;;;;;;18.76;100.00;97079.38;4962068;28;20055;-68
2022/07/04 06:25:18;;;;;;;12.45;3.05;;;;;;;18.83;100.00;97074.56;4952375;28;20038;-69
2022/07/04 06:27:46;;;;;;;4.93;2.67;;;;;;;19.05;100.00;97077.13;4962017;28;20190;-68
2022/07/04 06:30:12;;;;;;;4.63;2.70;;;;;;;19.48;100.00;97077.41;4959334;28;20046;-67
2022/07/04 06:32:59;;;;;;;7.35;3.03;;;;;;;19.42;100.00;97072.72;4964631;28;20074;-67
2022/07/04 06:35:45;;;;;;;6.47;2.75;;;;;;;18.68;100.00;97067.56;4959835;28;20043;-68
2022/07/04 06:38:18;;;;;;;5.10;2.72;;;;;;;18.85;100.00;97051.97;4959001;28;20047;-69
2022/07/04 06:40:43;;;;;;;4.38;2.40;;;;;;;19.14;100.00;97046.09;4962456;28;20500;-67
2022/07/04 06:43:09;;;;;;;5.63;2.70;;;;;;;19.52;100.00;97046.00;4958471;28;20098;-68
2022/07/04 06:45:36;;;;;;;6.65;2.85;;;;;;;19.60;100.00;97050.25;4972753;28;20039;-68
2022/07/04 06:48:03;;;;;;;5.53;2.30;;;;;;;19.73;100.00;97054.06;4976114;28;20043;-67
2022/07/04 06:50:32;;;;;;;6.90;2.75;;;;;;;19.55;100.00;97045.19;4952474;28;20075;-68
2022/07/04 06:52:58;;;;;;;7.30;2.63;;;;;;;19.68;100.00;97051.75;4958454;28;20043;-67
2022/07/04 06:55:23;;;;;;;5.90;2.63;;;;;;;20.02;100.00;97048.09;4953449;28;20133;-66
2022/07/04 06:57:48;;;;;;;3.50;2.05;;;;;;;20.35;100.00;97037.25;4969877;28;20182;-67
2022/07/04 07:00:14;;;;;;;3.60;2.35;;;;;;;20.01;100.00;97027.06;4969387;28;20097;-67
2022/07/04 07:02:40;;;;;;;6.20;2.47;;;;;;;19.47;100.00;97025.81;4965214;28;20047;-69
2022/07/04 07:05:06;;;;;;;6.03;2.45;;;;;;;19.00;100.00;97011.75;4956864;28;20153;-69
2022/07/04 07:07:32;;;;;;;5.28;2.75;;;;;;;18.93;100.00;96999.97;4961969;28;20041;-70
2022/07/04 07:09:57;;;;;;;8.43;2.90;;;;;;;18.68;100.00;96971.25;4955429;28;20051;-70
2022/07/04 07:12:23;;;;;;;6.53;3.47;;;;;;;18.43;100.00;96946.56;4959357;28;20351;-69
2022/07/04 07:14:50;;;;;;;6.28;3.10;;;;;;;18.63;100.00;96918.22;4978142;28;20046;-68
2022/07/04 07:17:16;;;;;;;7.93;3.88;;;;;;;18.51;100.00;96914.00;4958079;28;20054;-68
2022/07/04 07:19:44;;;;;;;6.15;3.78;;;;;;;18.53;100.00;96947.66;4962195;28;20084;-68
2022/07/04 07:22:11;;;;;;;6.80;3.75;;;;;;;19.18;100.00;96958.78;4959090;28;20046;-68
2022/07/04 07:24:36;;;;;;;7.68;3.40;;;;;;;19.87;100.00;96969.69;4960674;28;20058;-70
2022/07/04 07:27:02;;;;;;;8.07;2.90;;;;;;;20.55;100.00;96968.50;4950110;28;20051;-69
2022/07/04 07:29:27;;;;;;;4.20;2.50;;;;;;;21.22;100.00;96938.97;4971427;28;20049;-69
2022/07/04 07:31:53;;;;;;;4.22;1.98;;;;;;;21.41;100.00;96926.19;4963058;28;20121;-68
2022/07/04 07:34:18;;;;;;;3.83;2.42;;;;;;;20.25;100.00;96927.75;4972267;28;20043;-71
2022/07/04 07:36:44;;;;;;;3.05;2.10;;;;;;;21.35;100.00;96945.41;4983075;28;20050;-70
2022/07/04 07:39:09;;;;;;;3.47;2.05;;;;;;;23.35;100.00;96954.63;4977075;28;20039;-69
2022/07/04 07:41:35;;;;;;;4.18;1.95;;;;;;;24.45;100.00;96945.88;4998227;28;20039;-70
2022/07/04 07:44:00;;;;;;;4.60;1.77;;;;;;;24.93;100.00;96955.00;4968824;28;20396;-67
2022/07/04 07:46:25;;;;;;;7.60;1.73;;;;;;;25.05;100.00;96947.72;4971569;28;20146;-68
2022/07/04 07:48:51;;;;;;;6.68;1.80;;;;;;;25.65;100.00;96924.25;4961783;28;20053;-68
2022/07/04 07:51:17;;;;;;;4.55;1.90;;;;;;;23.97;100.00;96912.34;4961462;28;20373;-67
2022/07/04 07:53:43;;;;;;;3.80;1.60;;;;;;;23.91;100.00;96920.50;4964661;28;20035;-69
2022/07/04 07:56:08;;;;;;;3.92;1.88;;;;;;;23.87;100.00;96925.44;4956767;28;20039;-71
2022/07/04 07:58:34;;;;;;;4.47;1.63;;;;;;;22.82;100.00;96913.06;4962202;28;20038;-67
2022/07/04 08:01:01;;;;;;;3.47;1.80;;;;;;;21.44;100.00;96919.75;4957407;28;20051;-68
2022/07/04 08:06:12;;;;;;;4.40;1.83;;;;;;;21.53;100.00;96922.75;4957953;28;20051;-68
2022/07/04 08:08:37;;;;;;;3.80;1.90;;;;;;;21.87;100.00;96924.31;4962420;28;20105;-68
2022/07/04 08:11:04;;;;;;;10.90;2.13;;;;;;;21.99;100.00;96931.22;4960532;28;20043;-70
2022/07/04 08:13:30;;;;;;;4.47;2.15;;;;;;;22.04;100.00;96936.25;4964275;28;20158;-67
2022/07/04 08:15:55;;;;;;;4.05;2.05;;;;;;;22.83;100.00;96937.75;4964378;28;20040;-66
2022/07/04 08:18:22;;;;;;;5.88;2.00;;;;;;;22.77;100.00;96945.09;4959892;28;20042;-66
2022/07/04 08:20:51;;;;;;;5.10;1.65;;;;;;;22.97;100.00;96936.53;4970516;28;20130;-68
2022/07/04 08:23:17;;;;;;;3.25;1.55;;;;;;;22.80;100.00;96940.66;4958528;28;20042;-67
2022/07/04 08:25:42;;;;;;;2.60;1.63;;;;;;;23.08;100.00;96939.03;4962518;28;20141;-69
2022/07/04 08:28:08;;;;;;;4.00;1.85;;;;;;;23.86;99.18;96940.66;4939519;28;20143;-67
2022/07/04 08:30:34;;;;;;;3.25;1.48;;;;;;;25.11;96.40;96949.50;4972307;28;20062;-66
2022/07/04 08:32:59;;;;;;;4.72;1.40;;;;;;;24.47;92.35;96957.41;4967775;28;20492;-67
2022/07/04 08:35:25;;;;;;;3.20;1.20;;;;;;;25.24;90.15;96971.06;4982732;28;20086;-68
2022/07/04 08:37:53;;;;;;;2.03;1.30;;;;;;;26.24;83.22;96977.59;4968866;28;20434;-66
2022/07/04 08:40:23;;;;;;;2.10;1.00;;;;;;;26.13;84.17;96980.84;4962516;28;20043;-68
2022/07/04 08:42:49;;;;;;;4.05;1.50;;;;;;;26.24;77.33;96989.59;4965971;28;20039;-67
2022/07/04 08:45:16;;;;;;;3.20;1.20;;;;;;;25.77;78.58;96985.06;4961318;28;20043;-68
2022/07/04 08:47:43;;;;;;;4.38;1.20;;;;;;;25.85;80.11;96971.53;4965776;28;20039;-68
2022/07/04 08:50:11;;;;;;;3.53;1.48;;;;;;;26.19;81.17;96958.53;4958592;28;20071;-66
2022/07/04 08:52:40;;;;;;;2.42;1.20;;;;;;;27.06;76.40;96937.50;4965088;28;20039;-67
2022/07/04 09:00:38;;;;;;;4.93;1.42;;;;;;;26.82;79.02;96908.50;4949963;28;20034;-67
2022/07/04 09:03:04;;;;;;;3.05;1.23;;;;;;;26.78;78.57;96919.91;4976831;28;20050;-68
2022/07/04 09:05:34;;;;;;;7.47;1.85;;;;;;;26.73;77.87;96933.78;4958746;28;20142;-67
2022/07/04 09:08:00;;;;;;;3.53;1.65;;;;;;;26.56;78.83;96945.31;4962269;28;20043;-67
2022/07/04 09:10:26;;;;;;;4.30;1.50;;;;;;;27.04;78.28;96945.59;4961172;28;20082;-67
2022/07/04 09:12:53;;;;;;;4.45;1.13;;;;;;;27.64;75.85;96951.69;4967988;28;20058;-66
2022/07/04 09:15:19;;;;;;;2.95;1.40;;;;;;;27.83;72.71;96949.59;4965076;28;20046;-67
2022/07/04 09:17:45;;;;;;;3.85;1.50;;;;;;;27.32;73.93;96959.63;4976175;28;20153;-67
2022/07/04 09:20:15;;;;;;;1.85;1.10;;;;;;;27.44;74.99;96969.13;4946224;28;20101;-68
2022/07/04 09:22:41;;;;;;;5.07;1.75;;;;;;;26.69;76.04;96976.09;4974188;28;20124;-67
2022/07/04 09:25:07;;;;;;;4.10;1.40;;;;;;;26.22;78.98;96972.44;4984523;28;20050;-68
2022/07/04 09:27:35;;;;;;;3.92;1.20;;;;;;;26.45;78.98;96973.06;4978710;28;20047;-66
2022/07/04 09:30:05;;;;;;;7.53;3.35;;;;;;;26.74;77.17;96967.03;4981444;28;20067;-66
2022/07/04 09:32:38;;;;;;;4.45;1.70;;;;;;;26.67;78.10;96962.50;4971509;28;20049;-68
2022/07/04 09:35:13;;;;;;;2.55;1.55;;;;;;;26.76;78.31;96958.94;4965195;28;20045;-68
2022/07/04 09:37:47;;;;;;;6.70;1.35;;;;;;;26.61;82.09;96957.97;4967244;28;20074;-67
2022/07/04 09:40:24;;;;;;;4.78;1.45;;;;;;;26.90;80.05;96957.50;4959723;28;20133;-67
2022/07/04 09:42:50;;;;;;;5.50;1.50;;;;;;;27.51;74.97;96962.38;4965373;28;20042;-67
2022/07/04 09:45:16;;;;;;;2.97;1.17;;;;;;;27.44;74.83;96964.28;4960386;28;20039;-67
2022/07/04 09:47:45;;;;;;;2.38;1.30;;;;;;;28.19;71.22;96962.69;4960344;28;20047;-67
2022/07/04 09:50:19;;;;;;;6.03;1.33;;;;;;;28.19;73.17;96959.13;4957834;28;20307;-66
2022/07/04 09:52:55;;;;;;;4.93;1.95;;;;;;;28.85;70.77;96963.03;4964417;28;20045;-67
2022/07/04 09:55:32;;;;;;;6.05;1.95;;;;;;;29.63;68.67;96972.09;4958479;28;20047;-68
2022/07/04 09:58:09;;;;;;;3.53;1.60;;;;;;;29.70;65.18;96962.47;4975389;28;20137;-68
2022/07/04 10:00:39;;;;;;;4.60;1.45;;;;;;;28.83;69.29;96969.16;4962802;28;20053;-66
2022/07/04 10:03:25;;;;;;;6.25;1.80;;;;;;;27.60;73.46;96971.59;4975364;28;20066;-70
2022/07/04 10:06:11;;;;;;;8.48;2.17;;;;;;;28.25;72.25;96968.44;4949677;28;20047;-66
2022/07/04 10:08:40;;;;;;;6.20;2.00;;;;;;;28.51;69.27;96959.53;4958837;28;20064;-66
2022/07/04 10:11:06;;;;;;;4.82;2.10;;;;;;;28.35;69.95;96972.00;4959073;28;20432;-66
2022/07/04 10:13:32;;;;;;;5.60;2.85;;;;;;;27.85;72.30;96978.81;4964828;28;20070;-66
2022/07/04 10:15:59;;;;;;;4.97;2.08;;;;;;;26.79;74.58;96972.00;4962451;28;20039;-65
2022/07/04 10:18:25;;;;;;;5.50;2.08;;;;;;;26.70;76.38;96969.22;4957023;28;20043;-68
2022/07/04 10:20:53;;;;;;;5.43;2.67;;;;;;;27.26;74.54;96964.28;4963689;28;20050;-68
2022/07/04 10:23:20;;;;;;;5.22;2.03;;;;;;;26.82;75.16;96964.69;4976882;28;20046;-68
2022/07/04 10:25:47;;;;;;;5.88;2.20;;;;;;;27.32;74.59;96965.25;4996791;28;20047;-67
2022/07/04 10:28:13;;;;;;;7.00;2.50;;;;;;;27.52;71.02;96961.91;4989781;28;20047;-67
2022/07/04 10:30:40;;;;;;;8.40;2.20;;;;;;;26.71;74.44;96959.53;4970562;28;20105;-66
2022/07/04 10:33:09;;;;;;;4.45;1.80;;;;;;;27.38;72.78;96962.59;4959465;28;20043;-66
2022/07/04 10:35:53;;;;;;;;;;;;;;;27.56;70.26;96956.88;4963036;28;20544;-66
2022/07/04 10:38:27;;;;;;;3.70;1.30;;;;;;;27.74;69.48;96949.63;4958432;28;19918;-68
2022/07/04 10:40:57;;;;;;;3.28;1.20;;;;;;;27.97;65.75;96956.59;4963256;28;20046;-66
2022/07/04 10:43:37;;;;;;;5.60;1.30;;;;;;;27.87;68.31;96952.22;4957482;28;20805;-68
2022/07/04 10:46:15;;;;;;;5.18;2.00;;;;;;;27.17;68.24;96955.88;4960277;28;20538;-70
2022/07/04 10:48:59;;;;;;;6.80;1.90;;;;;;;27.48;66.58;96950.06;4965263;28;20066;-67
2022/07/04 10:51:42;;;;;;;6.72;1.88;;;;;;;27.55;65.35;96952.53;4956347;28;20119;-67
2022/07/04 10:54:11;;;;;;;3.47;1.50;;;;;;;27.80;64.70;96951.34;4958857;28;20053;-66
2022/07/04 10:56:38;;;;;;;5.93;1.65;;;;;;;27.46;65.88;96952.56;4963966;28;20432;-66
2022/07/04 10:59:09;;;;;;;1.63;1.05;;;;;;;27.39;67.32;96944.47;4960688;28;20047;-68
2022/07/04 11:01:34;;;;;;;2.35;1.42;;;;;;;27.03;68.46;96938.44;4962703;28;20415;-67
2022/07/04 11:04:00;;;;;;;6.70;1.67;;;;;;;27.67;65.71;96931.06;4963331;28;20077;-66
2022/07/04 11:06:43;;;;;;;3.55;1.33;;;;;;;27.99;64.67;96935.13;4957080;28;20050;-67
2022/07/04 11:09:19;;;;;;;2.03;1.10;;;;;;;28.09;65.24;96927.44;4957551;28;20392;-67
2022/07/04 11:11:54;;;;;;;2.70;1.20;;;;;;;27.50;67.45;96924.28;4950253;28;20038;-67
2022/07/04 11:14:38;;;;;;;2.60;1.20;;;;;;;27.63;65.77;96925.59;4958317;28;20046;-66
2022/07/04 11:17:05;;;;;;;6.15;1.52;;;;;;;27.69;65.48;96934.16;4957400;28;20046;-68
2022/07/04 11:19:31;;;;;;;2.20;1.33;;;;;;;26.86;68.57;96925.97;4974233;28;20039;-67
2022/07/04 11:21:57;;;;;;;3.15;1.30;;;;;;;26.88;71.25;96920.66;4987241;28;20724;-66
2022/07/04 11:24:23;;;;;;;7.82;3.47;;;;;;;26.95;72.12;96922.38;4979415;28;20704;-67
2022/07/04 11:26:49;;;;;;;3.33;1.17;;;;;;;27.07;69.58;96930.63;4963389;28;20549;-66
2022/07/04 11:29:14;;;;;;;11.52;5.30;;;;;;;27.52;69.74;96918.94;4957143;28;20038;-66
2022/07/04 11:31:44;;;;;;;3.55;1.38;;;;;;;27.90;67.00;96923.13;4962912;28;20047;-67
2022/07/04 11:34:09;;;;;;;2.15;1.00;;;;;;;28.36;62.85;96918.00;4973046;28;20043;-68
2022/07/04 11:36:35;;;;;;;3.55;1.08;;;;;;;28.11;64.20;96915.66;4957417;28;20074;-67
2022/07/04 11:39:05;;;;;;;5.10;1.60;;;;;;;28.53;65.01;96900.66;4962846;28;20062;-67
2022/07/04 11:47:16;;;;;;;3.40;1.25;;;;;;;28.21;64.61;96884.16;4939298;28;20050;-71
2022/07/04 11:49:47;;;;;;;2.90;1.10;;;;;;;28.56;62.59;96891.28;4979623;28;20047;-67